Time;durP1;ratioP1;P1;durP2;ratioP2;P2;SDS_P1;SDS_P2;PMS_P1;PMS_P2;Temp;Humidity;BMP_temperature;BMP_pressure;BME280_temperature;BME280_humidity;BME280_pressure;Samples;Min_cycle;Max_cycle;Signal;HPM_P1;HPM_P2
2023/08/29 00:02:16;;;;;;;;;;;;;;;;;;5044239;28;19925;-61
2023/08/29 00:04:42;;;;;;;;;;;;;;;;;;5043432;28;20851;-61
2023/08/29 00:07:08;;;;;;;;;;;;;;;;;;5021997;28;19925;-60
2023/08/29 00:09:34;;;;;;;;;;;;;;;;;;5041885;28;19925;-61
2023/08/29 00:12:00;;;;;;;;;;;;;;;;;;5036031;28;20509;-63
2023/08/29 00:14:26;;;;;;;;;;;;;;;;;;5038554;28;19924;-61
2023/08/29 00:16:52;;;;;;;;;;;;;;;;;;5031972;28;19936;-61
2023/08/29 00:19:18;;;;;;;;;;;;;;;;;;5035432;28;20353;-60
2023/08/29 00:21:45;;;;;;;;;;;;;;;;;;5036205;28;19925;-61
2023/08/29 00:24:11;;;;;;;;;;;;;;;;;;5044777;28;19933;-61
2023/08/29 00:26:37;;;;;;;;;;;;;;;;;;5027959;28;19929;-60
2023/08/29 00:29:03;;;;;;;;;;;;;;;;;;5028613;28;19973;-61
2023/08/29 00:31:28;;;;;;;;;;;;;;;;;;5038551;28;19925;-61
2023/08/29 00:33:54;;;;;;;;;;;;;;;;;;5030135;28;19924;-62
2023/08/29 00:36:20;;;;;;;;;;;;;;;;;;5043165;28;20003;-61
2023/08/29 00:38:46;;;;;;;;;;;;;;;;;;5042662;28;20326;-61
2023/08/29 00:41:12;;;;;;;;;;;;;;;;;;5039711;28;19925;-62
2023/08/29 00:43:38;;;;;;;;;;;;;;;;;;5043521;28;20438;-61
2023/08/29 00:46:04;;;;;;;;;;;;;;;;;;5039777;28;20067;-61
2023/08/29 00:48:30;;;;;;;;;;;;;;;;;;5039461;28;20033;-61
2023/08/29 00:50:56;;;;;;;;;;;;;;;;;;5037581;28;20019;-61
2023/08/29 00:53:22;;;;;;;;;;;;;;;;;;5036652;28;19925;-62
2023/08/29 00:55:48;;;;;;;;;;;;;;;;;;5037379;28;19925;-62
2023/08/29 00:58:14;;;;;;;;;;;;;;;;;;5041188;28;19932;-61
2023/08/29 01:00:40;;;;;;;;;;;;;;;;;;5033979;28;19925;-61
2023/08/29 01:03:06;;;;;;;;;;;;;;;;;;5134040;22;19934;-67
2023/08/29 01:05:31;;;;;;;;;;;;;;;;;;5088313;28;20367;-67
2023/08/29 01:07:59;;;;;;;;;;;;;;;;;;5089873;28;21199;-67
2023/08/29 01:10:25;;;;;;;;;;;;;;;;;;5098852;28;19928;-68
2023/08/29 01:12:51;;;;;;;;;;;;;;;;;;5088229;28;19931;-69
2023/08/29 01:15:17;;;;;;;;;;;;;;;;;;5103534;28;19930;-68
2023/08/29 01:17:43;;;;;;;;;;;;;;;;;;5095588;28;20351;-68
2023/08/29 01:20:09;;;;;;;;;;;;;;;;;;5104153;28;20397;-68
2023/08/29 01:22:34;;;;;;;;;;;;;;;;;;5102756;28;19923;-68
2023/08/29 01:25:00;;;;;;;;;;;;;;;;;;5096063;28;19935;-68
2023/08/29 01:27:27;;;;;;;;;;;;;;;;;;5103923;28;20553;-68
2023/08/29 01:29:53;;;;;;;;;;;;;;;;;;5103039;28;19928;-68
2023/08/29 01:32:19;;;;;;;;;;;;;;;;;;5103227;28;19939;-68
2023/08/29 01:34:45;;;;;;;;;;;;;;;;;;5101908;28;20343;-68
2023/08/29 01:37:11;;;;;;;;;;;;;;;;;;5103875;28;19924;-68
2023/08/29 01:39:36;;;;;;;;;;;;;;;;;;5103030;28;19930;-68
2023/08/29 01:42:02;;;;;;;;;;;;;;;;;;5102442;28;20356;-64
2023/08/29 01:44:28;;;;;;;;;;;;;;;;;;5103929;28;19924;-68
2023/08/29 01:46:54;;;;;;;;;;;;;;;;;;5103185;28;19946;-68
2023/08/29 01:49:20;;;;;;;;;;;;;;;;;;5101482;28;19923;-68
2023/08/29 01:51:46;;;;;;;;;;;;;;;;;;5096221;28;19924;-68
2023/08/29 01:54:12;;;;;;;;;;;;;;;;;;5103065;28;19928;-66
2023/08/29 01:56:39;;;;;;;;;;;;;;;;;;5103018;28;19930;-68
2023/08/29 01:59:06;;;;;;;;;;;;;;;;;;5102081;28;19928;-68
2023/08/29 02:01:32;;;;;;;;;;;;;;;;;;5103948;28;19928;-68
2023/08/29 02:03:58;;;;;;;;;;;;;;;;;;5103733;28;19923;-68
2023/08/29 02:06:24;;;;;;;;;;;;;;;;;;5101900;28;20357;-68
2023/08/29 02:08:50;;;;;;;;;;;;;;;;;;5103331;28;19975;-68
2023/08/29 02:11:16;;;;;;;;;;;;;;;;;;5084306;28;20053;-68
2023/08/29 02:13:42;;;;;;;;;;;;;;;;;;5101839;28;19927;-68
2023/08/29 02:16:08;;;;;;;;;;;;;;;;;;5103595;28;19960;-69
2023/08/29 02:18:34;;;;;;;;;;;;;;;;;;5103234;28;19927;-69
2023/08/29 02:21:00;;;;;;;;;;;;;;;;;;5102486;28;19930;-69
2023/08/29 02:23:26;;;;;;;;;;;;;;;;;;5102465;28;20564;-68
2023/08/29 02:25:52;;;;;;;;;;;;;;;;;;5103038;28;20453;-68
2023/08/29 02:28:18;;;;;;;;;;;;;;;;;;5102205;28;19923;-69
2023/08/29 02:30:44;;;;;;;;;;;;;;;;;;5099848;28;19924;-68
2023/08/29 02:33:10;;;;;;;;;;;;;;;;;;5103113;28;19923;-70
2023/08/29 02:35:35;;;;;;;;;;;;;;;;;;5102613;28;19931;-69
2023/08/29 02:38:02;;;;;;;;;;;;;;;;;;5103117;28;19927;-69
2023/08/29 02:40:28;;;;;;;;;;;;;;;;;;5098636;28;19924;-69
2023/08/29 02:42:54;;;;;;;;;;;;;;;;;;5101365;28;20169;-68
2023/08/29 02:45:19;;;;;;;;;;;;;;;;;;5105158;28;19984;-69
2023/08/29 02:47:45;;;;;;;;;;;;;;;;;;5107310;28;19924;-68
2023/08/29 02:50:11;;;;;;;;;;;;;;;;;;5100505;28;20274;-69
2023/08/29 02:52:37;;;;;;;;;;;;;;;;;;5106542;28;19923;-69
2023/08/29 02:55:03;;;;;;;;;;;;;;;;;;5105930;28;19977;-69
2023/08/29 02:57:29;;;;;;;;;;;;;;;;;;5106250;28;19923;-68
2023/08/29 02:59:55;;;;;;;;;;;;;;;;;;5106297;28;19923;-69
2023/08/29 03:02:21;;;;;;;;;;;;;;;;;;5106393;28;19984;-69
2023/08/29 03:04:47;;;;;;;;;;;;;;;;;;5106619;28;19923;-69
2023/08/29 03:07:13;;;;;;;;;;;;;;;;;;5106933;28;20018;-67
2023/08/29 03:09:39;;;;;;;;;;;;;;;;;;5105677;28;19924;-69
2023/08/29 03:12:04;;;;;;;;;;;;;;;;;;5105797;28;19935;-68
2023/08/29 03:14:30;;;;;;;;;;;;;;;;;;5105324;28;20018;-69
2023/08/29 03:16:57;;;;;;;;;;;;;;;;;;5106688;28;19971;-68
2023/08/29 03:19:23;;;;;;;;;;;;;;;;;;5106255;28;20088;-68
2023/08/29 03:21:49;;;;;;;;;;;;;;;;;;5106315;28;20018;-68
2023/08/29 03:24:15;;;;;;;;;;;;;;;;;;5106262;28;19991;-68
2023/08/29 03:26:40;;;;;;;;;;;;;;;;;;5106325;28;19919;-68
2023/08/29 03:29:06;;;;;;;;;;;;;;;;;;5104752;28;20392;-69
2023/08/29 03:31:32;;;;;;;;;;;;;;;;;;5105500;28;19923;-64
2023/08/29 03:33:58;;;;;;;;;;;;;;;;;;5106318;28;19923;-69
2023/08/29 03:36:24;;;;;;;;;;;;;;;;;;5106427;28;19943;-69
2023/08/29 03:38:50;;;;;;;;;;;;;;;;;;5106064;28;20475;-70
2023/08/29 03:41:16;;;;;;;;;;;;;;;;;;5105360;28;19931;-69
2023/08/29 03:43:42;;;;;;;;;;;;;;;;;;5105610;28;20426;-69
2023/08/29 03:46:08;;;;;;;;;;;;;;;;;;5105328;28;19923;-68
2023/08/29 03:48:34;;;;;;;;;;;;;;;;;;5105709;28;19924;-69
2023/08/29 03:51:09;;;;;;;;;;;;;;;;;;5101123;28;20385;-68
2023/08/29 03:53:36;;;;;;;;;;;;;;;;;;5105351;28;19928;-69
2023/08/29 03:56:05;;;;;;;;;;;;;;;;;;5106455;28;19927;-69
2023/08/29 03:58:31;;;;;;;;;;;;;;;;;;5105687;28;19924;-69
2023/08/29 04:00:57;;;;;;;;;;;;;;;;;;5103936;28;19931;-69
2023/08/29 04:03:23;;;;;;;;;;;;;;;;;;5105135;28;20278;-69
2023/08/29 04:05:48;;;;;;;;;;;;;;;;;;5106004;28;19949;-69
2023/08/29 04:08:14;;;;;;;;;;;;;;;;;;5105354;28;19962;-69
2023/08/29 04:10:40;;;;;;;;;;;;;;;;;;5103756;28;19923;-69
2023/08/29 04:13:06;;;;;;;;;;;;;;;;;;5105356;28;19971;-69
2023/08/29 04:15:33;;;;;;;;;;;;;;;;;;5105574;28;19977;-70
2023/08/29 04:17:59;;;;;;;;;;;;;;;;;;5104166;28;19931;-70
2023/08/29 04:20:25;;;;;;;;;;;;;;;;;;5097711;28;20331;-68
2023/08/29 04:22:51;;;;;;;;;;;;;;;;;;5105286;28;19976;-69
2023/08/29 04:25:17;;;;;;;;;;;;;;;;;;5105451;28;19924;-69
2023/08/29 04:27:44;;;;;;;;;;;;;;;;;;5104206;28;20384;-68
2023/08/29 04:30:09;;;;;;;;;;;;;;;;;;5105066;28;19927;-69
2023/08/29 04:32:36;;;;;;;;;;;;;;;;;;5103323;28;19924;-69
2023/08/29 04:35:02;;;;;;;;;;;;;;;;;;5105118;28;19927;-65
2023/08/29 04:37:28;;;;;;;;;;;;;;;;;;5105633;28;20011;-70
2023/08/29 04:39:54;;;;;;;;;;;;;;;;;;5104114;28;19923;-70
2023/08/29 04:42:20;;;;;;;;;;;;;;;;;;5104057;28;19948;-70
2023/08/29 04:44:46;;;;;;;;;;;;;;;;;;5104538;28;19946;-70
2023/08/29 04:47:12;;;;;;;;;;;;;;;;;;5104850;28;20304;-70
2023/08/29 04:49:38;;;;;;;;;;;;;;;;;;5103309;28;19931;-71
2023/08/29 04:52:04;;;;;;;;;;;;;;;;;;5100818;28;19973;-71
2023/08/29 04:54:30;;;;;;;;;;;;;;;;;;5105312;28;19931;-71
2023/08/29 04:56:56;;;;;;;;;;;;;;;;;;5103531;28;19932;-71
2023/08/29 04:59:22;;;;;;;;;;;;;;;;;;5104727;28;19927;-68
2023/08/29 05:01:48;;;;;;;;;;;;;;;;;;5103161;28;20311;-68
2023/08/29 05:04:14;;;;;;;;;;;;;;;;;;5103926;28;19931;-67
2023/08/29 05:06:39;;;;;;;;;;;;;;;;;;5102764;28;19931;-67
2023/08/29 05:09:09;;;;;;;;;;;;;;;;;;5104687;28;19924;-67
2023/08/29 05:11:35;;;;;;;;;;;;;;;;;;5103591;28;19924;-68
2023/08/29 05:14:01;;;;;;;;;;;;;;;;;;5104508;28;19924;-68
2023/08/29 05:16:27;;;;;;;;;;;;;;;;;;5103992;28;20186;-68
2023/08/29 05:18:53;;;;;;;;;;;;;;;;;;5104508;28;20524;-67
2023/08/29 05:21:20;;;;;;;;;;;;;;;;;;5094136;28;20224;-67
2023/08/29 05:23:47;;;;;;;;;;;;;;;;;;5103836;28;20314;-68
2023/08/29 05:26:13;;;;;;;;;;;;;;;;;;5103667;28;20672;-67
2023/08/29 05:28:39;;;;;;;;;;;;;;;;;;5103532;28;19923;-68
2023/08/29 05:31:05;;;;;;;;;;;;;;;;;;5102523;28;20519;-68
2023/08/29 05:33:31;;;;;;;;;;;;;;;;;;5102798;28;19924;-69
2023/08/29 05:35:57;;;;;;;;;;;;;;;;;;5104118;28;19979;-68
2023/08/29 05:38:25;;;;;;;;;;;;;;;;;;5101576;28;20385;-68
2023/08/29 05:40:51;;;;;;;;;;;;;;;;;;5103641;28;19924;-68
2023/08/29 05:43:18;;;;;;;;;;;;;;;;;;5102989;28;20343;-68
2023/08/29 05:45:43;;;;;;;;;;;;;;;;;;5103849;28;20015;-67
2023/08/29 05:48:09;;;;;;;;;;;;;;;;;;5102424;28;20455;-67
2023/08/29 05:50:35;;;;;;;;;;;;;;;;;;5103058;28;20463;-67
2023/08/29 05:53:01;;;;;;;;;;;;;;;;;;5104509;28;20391;-67
2023/08/29 05:55:27;;;;;;;;;;;;;;;;;;5102972;28;19924;-67
2023/08/29 05:57:53;;;;;;;;;;;;;;;;;;5102896;28;19932;-67
2023/08/29 06:00:19;;;;;;;;;;;;;;;;;;5103533;28;19928;-67
2023/08/29 06:02:45;;;;;;;;;;;;;;;;;;5101689;28;19943;-67
2023/08/29 06:05:12;;;;;;;;;;;;;;;;;;5103232;28;19935;-68
2023/08/29 06:07:40;;;;;;;;;;;;;;;;;;5103121;28;20019;-68
2023/08/29 06:10:07;;;;;;;;;;;;;;;;;;5102210;28;19928;-69
2023/08/29 06:12:33;;;;;;;;;;;;;;;;;;5100846;28;19924;-69
2023/08/29 06:14:59;;;;;;;;;;;;;;;;;;5103198;28;19946;-69
2023/08/29 06:17:25;;;;;;;;;;;;;;;;;;5103382;28;19930;-69
2023/08/29 06:19:51;;;;;;;;;;;;;;;;;;5102424;28;19930;-69
2023/08/29 06:22:17;;;;;;;;;;;;;;;;;;5103304;28;19924;-69
2023/08/29 06:24:43;;;;;;;;;;;;;;;;;;5103238;28;19927;-68
2023/08/29 06:27:09;;;;;;;;;;;;;;;;;;5101804;28;20338;-69
2023/08/29 06:29:34;;;;;;;;;;;;;;;;;;5089050;28;20428;-68
2023/08/29 06:32:00;;;;;;;;;;;;;;;;;;5103393;28;20011;-69
2023/08/29 06:34:26;;;;;;;;;;;;;;;;;;5102152;28;20076;-68
2023/08/29 06:36:52;;;;;;;;;;;;;;;;;;5102639;28;19972;-69
2023/08/29 06:39:18;;;;;;;;;;;;;;;;;;5102707;28;20007;-69
2023/08/29 06:41:45;;;;;;;;;;;;;;;;;;5100975;28;19924;-71
2023/08/29 06:44:11;;;;;;;;;;;;;;;;;;5102636;28;20380;-70
2023/08/29 06:46:37;;;;;;;;;;;;;;;;;;5101749;28;19931;-71
2023/08/29 06:49:05;;;;;;;;;;;;;;;;;;5103088;28;19927;-71
2023/08/29 06:51:31;;;;;;;;;;;;;;;;;;5103737;28;19931;-71
2023/08/29 06:53:57;;;;;;;;;;;;;;;;;;5102530;28;19932;-71
2023/08/29 06:56:23;;;;;;;;;;;;;;;;;;5102331;28;19932;-71
2023/08/29 06:58:49;;;;;;;;;;;;;;;;;;5100767;28;19931;-70
2023/08/29 07:01:15;;;;;;;;;;;;;;;;;;5102403;28;19978;-70
2023/08/29 07:03:41;;;;;;;;;;;;;;;;;;5102321;28;19949;-71
2023/08/29 07:06:07;;;;;;;;;;;;;;;;;;5102808;28;19924;-70
2023/08/29 07:08:33;;;;;;;;;;;;;;;;;;5103243;28;19935;-69
2023/08/29 07:10:59;;;;;;;;;;;;;;;;;;5102233;28;20297;-70
2023/08/29 07:13:25;;;;;;;;;;;;;;;;;;5101767;28;19923;-71
2023/08/29 07:15:51;;;;;;;;;;;;;;;;;;5102395;28;19931;-71
2023/08/29 07:18:17;;;;;;;;;;;;;;;;;;5102096;28;20396;-71
2023/08/29 07:20:43;;;;;;;;;;;;;;;;;;5102719;28;20451;-70
2023/08/29 07:23:10;;;;;;;;;;;;;;;;;;5101420;28;19924;-71
2023/08/29 07:25:35;;;;;;;;;;;;;;;;;;5101754;28;20047;-71
2023/08/29 07:28:01;;;;;;;;;;;;;;;;;;5101733;28;19934;-71
2023/08/29 07:30:27;;;;;;;;;;;;;;;;;;5106524;28;20018;-70
2023/08/29 07:32:53;;;;;;;;;;;;;;;;;;5105733;28;19928;-71
2023/08/29 07:35:19;;;;;;;;;;;;;;;;;;5106010;28;19924;-71
2023/08/29 07:37:45;;;;;;;;;;;;;;;;;;5105299;28;19934;-71
2023/08/29 07:40:11;;;;;;;;;;;;;;;;;;5094280;28;19927;-71
2023/08/29 07:42:37;;;;;;;;;;;;;;;;;;5105268;28;20322;-71
2023/08/29 07:45:03;;;;;;;;;;;;;;;;;;5105496;28;19939;-70
2023/08/29 07:47:29;;;;;;;;;;;;;;;;;;5106447;28;20324;-72
2023/08/29 07:49:55;;;;;;;;;;;;;;;;;;5105250;28;19924;-71
2023/08/29 07:52:21;;;;;;;;;;;;;;;;;;5105335;28;19923;-71
2023/08/29 07:54:47;;;;;;;;;;;;;;;;;;5106084;28;19923;-71
2023/08/29 07:57:13;;;;;;;;;;;;;;;;;;5104899;28;19928;-70
2023/08/29 07:59:40;;;;;;;;;;;;;;;;;;5105277;28;19926;-71
2023/08/29 08:02:06;;;;;;;;;;;;;;;;;;5104461;28;20600;-71
2023/08/29 08:04:31;;;;;;;;;;;;;;;;;;5105320;28;19924;-71
2023/08/29 08:06:57;;;;;;;;;;;;;;;;;;5105331;28;19928;-71
2023/08/29 08:09:23;;;;;;;;;;;;;;;;;;5105513;28;19928;-71
2023/08/29 08:11:49;;;;;;;;;;;;;;;;;;5104619;27;20350;-72
2023/08/29 08:14:17;;;;;;;;;;;;;;;;;;5105133;28;19924;-71
2023/08/29 08:16:43;;;;;;;;;;;;;;;;;;5105100;28;19927;-71
2023/08/29 08:19:09;;;;;;;;;;;;;;;;;;5105358;28;19947;-72
2023/08/29 08:21:34;;;;;;;;;;;;;;;;;;5105743;28;19924;-69
2023/08/29 08:24:00;;;;;;;;;;;;;;;;;;5105355;28;20278;-71
2023/08/29 08:26:27;;;;;;;;;;;;;;;;;;5104065;28;20373;-69
2023/08/29 08:28:54;;;;;;;;;;;;;;;;;;5104992;28;20801;-71
2023/08/29 08:31:20;;;;;;;;;;;;;;;;;;5105232;28;19931;-71
2023/08/29 08:33:46;;;;;;;;;;;;;;;;;;5104754;28;19928;-71
2023/08/29 08:36:12;;;;;;;;;;;;;;;;;;5104775;28;19951;-71
2023/08/29 08:38:38;;;;;;;;;;;;;;;;;;5105259;28;19967;-72
2023/08/29 08:41:04;;;;;;;;;;;;;;;;;;5095664;28;19975;-71
2023/08/29 08:43:30;;;;;;;;;;;;;;;;;;5105310;28;19924;-71
2023/08/29 08:45:56;;;;;;;;;;;;;;;;;;5105249;28;20350;-71
2023/08/29 08:48:22;;;;;;;;;;;;;;;;;;5104830;28;19977;-71
2023/08/29 08:50:48;;;;;;;;;;;;;;;;;;5104342;28;20068;-71
2023/08/29 08:53:13;;;;;;;;;;;;;;;;;;5104640;28;20014;-66
2023/08/29 08:55:40;;;;;;;;;;;;;;;;;;5104604;28;20019;-66
2023/08/29 08:58:06;;;;;;;;;;;;;;;;;;5103276;28;20477;-67
2023/08/29 09:00:32;;;;;;;;;;;;;;;;;;5104670;28;19920;-66
2023/08/29 09:02:57;;;;;;;;;;;;;;;;;;5103193;28;19924;-66
2023/08/29 09:05:24;;;;;;;;;;;;;;;;;;5104046;28;19950;-66
2023/08/29 09:07:50;;;;;;;;;;;;;;;;;;5103588;28;20389;-67
2023/08/29 09:10:16;;;;;;;;;;;;;;;;;;5103868;28;19924;-66
2023/08/29 09:12:41;;;;;;;;;;;;;;;;;;5103915;28;19920;-67
2023/08/29 09:15:07;;;;;;;;;;;;;;;;;;5104146;28;20444;-67
2023/08/29 09:17:33;;;;;;;;;;;;;;;;;;5103154;28;19998;-67
2023/08/29 09:19:59;;;;;;;;;;;;;;;;;;5103138;28;19920;-66
2023/08/29 09:22:26;;;;;;;;;;;;;;;;;;5103006;28;19978;-66
2023/08/29 09:24:52;;;;;;;;;;;;;;;;;;5104064;28;19927;-66
2023/08/29 09:27:17;;;;;;;;;;;;;;;;;;5103406;28;19947;-66
2023/08/29 09:29:43;;;;;;;;;;;;;;;;;;5104251;28;19924;-66
2023/08/29 09:32:09;;;;;;;;;;;;;;;;;;5103286;28;19919;-67
2023/08/29 09:34:35;;;;;;;;;;;;;;;;;;5103442;28;20316;-67
2023/08/29 09:37:01;;;;;;;;;;;;;;;;;;5104646;28;19923;-66
2023/08/29 09:39:27;;;;;;;;;;;;;;;;;;5103137;28;19931;-66
2023/08/29 09:41:53;;;;;;;;;;;;;;;;;;5102843;28;19928;-66
2023/08/29 09:44:19;;;;;;;;;;;;;;;;;;5102862;28;20003;-66
2023/08/29 09:46:45;;;;;;;;;;;;;;;;;;5102474;28;19930;-67
2023/08/29 09:49:11;;;;;;;;;;;;;;;;;;5103724;28;20011;-67
2023/08/29 09:51:37;;;;;;;;;;;;;;;;;;5103173;28;19928;-67
2023/08/29 09:54:03;;;;;;;;;;;;;;;;;;5103550;28;20022;-63
2023/08/29 09:56:29;;;;;;;;;;;;;;;;;;5103252;28;20044;-66
2023/08/29 09:58:55;;;;;;;;;;;;;;;;;;5102588;28;20342;-66
2023/08/29 10:01:21;;;;;;;;;;;;;;;;;;5103569;28;20010;-66
2023/08/29 10:03:46;;;;;;;;;;;;;;;;;;5102989;28;20011;-66
2023/08/29 10:06:12;;;;;;;;;;;;;;;;;;5103245;28;20057;-66
2023/08/29 10:08:38;;;;;;;;;;;;;;;;;;5103179;28;20290;-66
2023/08/29 10:11:04;;;;;;;;;;;;;;;;;;5101725;28;19923;-67
2023/08/29 10:13:30;;;;;;;;;;;;;;;;;;5103513;28;19920;-66
2023/08/29 10:15:56;;;;;;;;;;;;;;;;;;5103489;28;19947;-66
2023/08/29 10:18:22;;;;;;;;;;;;;;;;;;5102698;28;19958;-66
2023/08/29 10:20:48;;;;;;;;;;;;;;;;;;5103352;28;19924;-66
2023/08/29 10:23:14;;;;;;;;;;;;;;;;;;5102067;28;19924;-66
2023/08/29 10:25:40;;;;;;;;;;;;;;;;;;5102489;28;20288;-67
2023/08/29 10:28:06;;;;;;;;;;;;;;;;;;5103581;28;20010;-66
2023/08/29 10:30:32;;;;;;;;;;;;;;;;;;5103036;28;20378;-63
2023/08/29 10:33:00;;;;;;;;;;;;;;;;;;5101878;28;19923;-66
2023/08/29 10:35:26;;;;;;;;;;;;;;;;;;5102273;28;19972;-66
2023/08/29 10:37:52;;;;;;;;;;;;;;;;;;5103040;28;19935;-66
2023/08/29 10:40:18;;;;;;;;;;;;;;;;;;5103490;28;19924;-66
2023/08/29 10:42:43;;;;;;;;;;;;;;;;;;5101534;28;19924;-66
2023/08/29 10:45:09;;;;;;;;;;;;;;;;;;5103141;28;20293;-66
2023/08/29 10:47:36;;;;;;;;;;;;;;;;;;5102811;28;19923;-67
2023/08/29 10:50:05;;;;;;;;;;;;;;;;;;5102890;28;20001;-66
2023/08/29 10:52:31;;;;;;;;;;;;;;;;;;5102689;28;19924;-66
2023/08/29 10:54:57;;;;;;;;;;;;;;;;;;5102399;28;19935;-68
2023/08/29 10:57:23;;;;;;;;;;;;;;;;;;5102123;28;19927;-70
2023/08/29 10:59:49;;;;;;;;;;;;;;;;;;5102864;28;19923;-71
2023/08/29 11:02:15;;;;;;;;;;;;;;;;;;5102022;28;19931;-70
2023/08/29 11:04:41;;;;;;;;;;;;;;;;;;5100154;28;20010;-70
2023/08/29 11:07:08;;;;;;;;;;;;;;;;;;5103440;28;19932;-69
2023/08/29 11:09:34;;;;;;;;;;;;;;;;;;5104319;28;20010;-69
2023/08/29 11:12:01;;;;;;;;;;;;;;;;;;5103638;28;20495;-71
2023/08/29 11:14:27;;;;;;;;;;;;;;;;;;5103390;28;19927;-70
2023/08/29 11:16:53;;;;;;;;;;;;;;;;;;5103727;28;19931;-70
2023/08/29 11:19:20;;;;;;;;;;;;;;;;;;5104352;28;19933;-70
2023/08/29 11:21:46;;;;;;;;;;;;;;;;;;5103346;28;20152;-70
2023/08/29 11:24:12;;;;;;;;;;;;;;;;;;5104002;28;20080;-69
2023/08/29 11:26:38;;;;;;;;;;;;;;;;;;5101992;28;19987;-72
2023/08/29 11:29:05;;;;;;;;;;;;;;;;;;5099932;28;19942;-72
2023/08/29 11:31:31;;;;;;;;;;;;;;;;;;5106096;28;19931;-72
2023/08/29 11:33:57;;;;;;;;;;;;;;;;;;5105933;28;19932;-71
2023/08/29 11:36:23;;;;;;;;;;;;;;;;;;5105105;28;19928;-72
2023/08/29 11:38:49;;;;;;;;;;;;;;;;;;5105839;28;20011;-72
2023/08/29 11:41:16;;;;;;;;;;;;;;;;;;5105061;28;20410;-70
2023/08/29 11:43:42;;;;;;;;;;;;;;;;;;5106342;28;19997;-70
2023/08/29 11:46:08;;;;;;;;;;;;;;;;;;5106275;28;19949;-70
2023/08/29 11:48:34;;;;;;;;;;;;;;;;;;5105103;28;19924;-71
2023/08/29 11:51:00;;;;;;;;;;;;;;;;;;5105956;28;19938;-71
2023/08/29 11:53:26;;;;;;;;;;;;;;;;;;5104841;28;20015;-70
2023/08/29 11:55:52;;;;;;;;;;;;;;;;;;5103352;28;19966;-68
2023/08/29 11:58:18;;;;;;;;;;;;;;;;;;5104124;28;19981;-70
2023/08/29 12:00:45;;;;;;;;;;;;;;;;;;5104068;28;19986;-70
2023/08/29 12:03:11;;;;;;;;;;;;;;;;;;5104164;28;19923;-70
2023/08/29 12:05:37;;;;;;;;;;;;;;;;;;5103524;28;19931;-71
2023/08/29 12:08:02;;;;;;;;;;;;;;;;;;5104179;28;20285;-66
2023/08/29 12:10:29;;;;;;;;;;;;;;;;;;5105509;28;20016;-71
2023/08/29 12:12:55;;;;;;;;;;;;;;;;;;5099589;28;19928;-70
2023/08/29 12:15:21;;;;;;;;;;;;;;;;;;5101538;28;19931;-70
2023/08/29 12:17:47;;;;;;;;;;;;;;;;;;5104770;28;19928;-71
2023/08/29 12:20:13;;;;;;;;;;;;;;;;;;5105616;28;20376;-73
2023/08/29 12:22:39;;;;;;;;;;;;;;;;;;5105353;28;20031;-71
2023/08/29 12:25:05;;;;;;;;;;;;;;;;;;5103462;28;20270;-71
2023/08/29 12:27:31;;;;;;;;;;;;;;;;;;5104770;28;19923;-70
2023/08/29 12:29:57;;;;;;;;;;;;;;;;;;5103980;28;20385;-70
2023/08/29 12:32:23;;;;;;;;;;;;;;;;;;5104925;28;19971;-70
2023/08/29 12:34:49;;;;;;;;;;;;;;;;;;5104785;28;19924;-70
2023/08/29 12:37:15;;;;;;;;;;;;;;;;;;5105441;28;19936;-70
2023/08/29 12:39:40;;;;;;;;;;;;;;;;;;5104683;28;19923;-70
2023/08/29 12:42:07;;;;;;;;;;;;;;;;;;5103842;28;19976;-70
2023/08/29 12:44:32;;;;;;;;;;;;;;;;;;5102584;28;20361;-66
2023/08/29 12:46:58;;;;;;;;;;;;;;;;;;5105022;28;19959;-70
2023/08/29 12:49:24;;;;;;;;;;;;;;;;;;5104914;28;20011;-70
2023/08/29 12:51:50;;;;;;;;;;;;;;;;;;5104334;28;19923;-70
2023/08/29 12:54:16;;;;;;;;;;;;;;;;;;5104294;28;19930;-70
2023/08/29 12:56:43;;;;;;;;;;;;;;;;;;5102779;28;20408;-71
2023/08/29 12:59:09;;;;;;;;;;;;;;;;;;5104738;28;19923;-71
2023/08/29 13:01:35;;;;;;;;;;;;;;;;;;5104387;28;19965;-71
2023/08/29 13:04:01;;;;;;;;;;;;;;;;;;5104370;28;19977;-70
2023/08/29 13:06:27;;;;;;;;;;;;;;;;;;5104663;28;19927;-70
2023/08/29 13:08:53;;;;;;;;;;;;;;;;;;5103790;28;19928;-70
2023/08/29 13:11:19;;;;;;;;;;;;;;;;;;5103319;28;19976;-70
2023/08/29 13:13:45;;;;;;;;;;;;;;;;;;5104740;28;20014;-72
2023/08/29 13:16:11;;;;;;;;;;;;;;;;;;5103058;28;19924;-71
2023/08/29 13:18:37;;;;;;;;;;;;;;;;;;5104581;28;19931;-71
2023/08/29 13:21:04;;;;;;;;;;;;;;;;;;5103614;28;19934;-70
2023/08/29 13:23:30;;;;;;;;;;;;;;;;;;5104854;28;19924;-70
2023/08/29 13:25:55;;;;;;;;;;;;;;;;;;5102333;28;19968;-70
2023/08/29 13:28:21;;;;;;;;;;;;;;;;;;5103818;28;20343;-70
2023/08/29 13:30:47;;;;;;;;;;;;;;;;;;5103739;28;19927;-70
2023/08/29 13:33:13;;;;;;;;;;;;;;;;;;5104220;28;19924;-71
2023/08/29 13:35:39;;;;;;;;;;;;;;;;;;5103289;28;20293;-71
2023/08/29 13:38:05;;;;;;;;;;;;;;;;;;5103874;28;19924;-70
2023/08/29 13:40:32;;;;;;;;;;;;;;;;;;5103154;28;19924;-70
2023/08/29 13:42:58;;;;;;;;;;;;;;;;;;5104554;28;20010;-71
2023/08/29 13:45:24;;;;;;;;;;;;;;;;;;5103543;28;20011;-70
2023/08/29 13:47:50;;;;;;;;;;;;;;;;;;5101460;28;19976;-71
2023/08/29 13:50:17;;;;;;;;;;;;;;;;;;5103472;28;20139;-71
2023/08/29 13:52:43;;;;;;;;;;;;;;;;;;5103736;28;19935;-70
2023/08/29 13:55:10;;;;;;;;;;;;;;;;;;5102959;28;19924;-71
2023/08/29 13:57:35;;;;;;;;;;;;;;;;;;5101536;28;19932;-70
2023/08/29 14:00:03;;;;;;;;;;;;;;;;;;5102970;28;19931;-73
2023/08/29 14:02:29;;;;;;;;;;;;;;;;;;5103646;28;19954;-72
2023/08/29 14:04:55;;;;;;;;;;;;;;;;;;5102254;28;20384;-70
2023/08/29 14:07:21;;;;;;;;;;;;;;;;;;5103192;28;19977;-70
2023/08/29 14:09:47;;;;;;;;;;;;;;;;;;5101599;28;19932;-71
2023/08/29 14:12:13;;;;;;;;;;;;;;;;;;5100917;28;19928;-71
2023/08/29 14:14:39;;;;;;;;;;;;;;;;;;5102280;28;19971;-70
2023/08/29 14:17:05;;;;;;;;;;;;;;;;;;5102764;28;19928;-71
2023/08/29 14:19:31;;;;;;;;;;;;;;;;;;5103619;28;19924;-71
2023/08/29 14:21:57;;;;;;;;;;;;;;;;;;5101912;28;19947;-71
2023/08/29 14:24:22;;;;;;;;;;;;;;;;;;5101688;28;20405;-71
2023/08/29 14:26:49;;;;;;;;;;;;;;;;;;5100440;28;19923;-71
2023/08/29 14:29:15;;;;;;;;;;;;;;;;;;5101566;28;19927;-71
2023/08/29 14:31:41;;;;;;;;;;;;;;;;;;5101802;28;19919;-72
2023/08/29 14:34:07;;;;;;;;;;;;;;;;;;5101656;28;20355;-72
2023/08/29 14:36:33;;;;;;;;;;;;;;;;;;5102180;28;19950;-72
2023/08/29 14:38:59;;;;;;;;;;;;;;;;;;5104431;28;20377;-71
2023/08/29 14:41:25;;;;;;;;;;;;;;;;;;5106415;28;20296;-71
2023/08/29 14:43:51;;;;;;;;;;;;;;;;;;5106972;28;19927;-71
2023/08/29 14:46:17;;;;;;;;;;;;;;;;;;5107023;28;20034;-70
2023/08/29 14:48:42;;;;;;;;;;;;;;;;;;5096355;28;19927;-71
2023/08/29 14:51:08;;;;;;;;;;;;;;;;;;5106404;28;19924;-72
2023/08/29 14:53:35;;;;;;;;;;;;;;;;;;5107160;28;19931;-70
2023/08/29 14:56:04;;;;;;;;;;;;;;;;;;5094734;28;19924;-70
2023/08/29 14:58:30;;;;;;;;;;;;;;;;;;5106286;28;19932;-71
2023/08/29 15:00:56;;;;;;;;;;;;;;;;;;5105088;28;20313;-71
2023/08/29 15:03:22;;;;;;;;;;;;;;;;;;5105066;27;19933;-71
2023/08/29 15:05:48;;;;;;;;;;;;;;;;;;5103411;28;19946;-73
2023/08/29 15:08:14;;;;;;;;;;;;;;;;;;5107054;28;19915;-71
2023/08/29 15:10:40;;;;;;;;;;;;;;;;;;5105537;28;19962;-72
2023/08/29 15:13:07;;;;;;;;;;;;;;;;;;5104856;28;19924;-72
2023/08/29 15:15:33;;;;;;;;;;;;;;;;;;5106423;28;19928;-67
2023/08/29 15:17:59;;;;;;;;;;;;;;;;;;5104385;28;19924;-73
2023/08/29 15:20:28;;;;;;;;;;;;;;;;;;5104540;28;19920;-70
2023/08/29 15:22:54;;;;;;;;;;;;;;;;;;5101762;28;19982;-66
2023/08/29 15:25:20;;;;;;;;;;;;;;;;;;5104838;28;19980;-71
2023/08/29 15:27:46;;;;;;;;;;;;;;;;;;5105822;28;20077;-70
2023/08/29 15:30:12;;;;;;;;;;;;;;;;;;5105039;28;19923;-70
2023/08/29 15:32:38;;;;;;;;;;;;;;;;;;5102766;28;19934;-71
2023/08/29 15:35:08;;;;;;;;;;;;;;;;;;5104223;28;19928;-71
2023/08/29 15:37:34;;;;;;;;;;;;;;;;;;5104672;28;20018;-68
2023/08/29 15:40:01;;;;;;;;;;;;;;;;;;5106622;28;20099;-70
2023/08/29 15:42:27;;;;;;;;;;;;;;;;;;5104917;28;20403;-69
2023/08/29 15:44:53;;;;;;;;;;;;;;;;;;5105954;28;19989;-70
2023/08/29 15:47:21;;;;;;;;;;;;;;;;;;5104851;28;19957;-71
2023/08/29 15:49:47;;;;;;;;;;;;;;;;;;5105460;28;19976;-68
2023/08/29 15:52:13;;;;;;;;;;;;;;;;;;5105598;28;19932;-68
2023/08/29 15:54:39;;;;;;;;;;;;;;;;;;5105841;28;19934;-68
2023/08/29 15:57:05;;;;;;;;;;;;;;;;;;5104796;28;20015;-68
2023/08/29 15:59:31;;;;;;;;;;;;;;;;;;5105634;28;19946;-68
2023/08/29 16:01:57;;;;;;;;;;;;;;;;;;5105415;28;19924;-68
2023/08/29 16:04:23;;;;;;;;;;;;;;;;;;5101860;28;20018;-71
2023/08/29 16:06:49;;;;;;;;;;;;;;;;;;5104344;28;20022;-72
2023/08/29 16:09:15;;;;;;;;;;;;;;;;;;5100097;28;20337;-71
2023/08/29 16:11:41;;;;;;;;;;;;;;;;;;5102674;28;20025;-71
2023/08/29 16:14:07;;;;;;;;;;;;;;;;;;5105227;28;21611;-71
2023/08/29 16:16:35;;;;;;;;;;;;;;;;;;5103766;28;20330;-71
2023/08/29 16:19:01;;;;;;;;;;;;;;;;;;5103704;28;19943;-72
2023/08/29 16:21:27;;;;;;;;;;;;;;;;;;5096509;28;19921;-71
2023/08/29 16:23:54;;;;;;;;;;;;;;;;;;5103761;28;20339;-74
2023/08/29 16:26:21;;;;;;;;;;;;;;;;;;5099349;28;19919;-71
2023/08/29 16:28:47;;;;;;;;;;;;;;;;;;5103285;28;19951;-70
2023/08/29 16:31:13;;;;;;;;;;;;;;;;;;5104308;28;19934;-71
2023/08/29 16:33:39;;;;;;;;;;;;;;;;;;5100797;28;19929;-70
2023/08/29 16:36:05;;;;;;;;;;;;;;;;;;5101262;28;19923;-69
2023/08/29 16:38:31;;;;;;;;;;;;;;;;;;5102152;28;19930;-69